Archival Weather

Republic

Farmingdale, New York (KFRG)

Report from: Friday, February 23, 2024 6:53 PM EST
Current time: Monday, June 24, 2024 5:52 AM EDT

Current weather – Weather history – Daily summaries
Weather forecast

Temperature6.7°C (44.1°F)
Wind chill5.8°C (42.5°F)
Dew point4.4°C (39.9°F)
Winds 3 kts (1.5 m/s, 3.5 mph) Northwest (320°)
Visibility10 mi. (16.1 km)
Clouds Ceiling: Overcast 9,000 ft. (2,743 m)
Altimeter29.47 in.Hg (998 mB)
Relative humidity85 %
Density altitude-352 ft. (-107 m)
Sea-level pressure99.8 kPa (998 mB, 29.47 in.Hg)
Max temp last 6 hours8.3°C (46.9°F)
Min temp last 6 hours6.7°C (44.1°F)
Remarks Automated weather observing station without precipitation discriminator
Pressure rising more quickly
Flight conditions Visual Meteorological Conditions
Raw dataKFRG 232353Z 32003KT 10SM OVC090 07/04 A2947 RMK AO1 SLP979 T00670044 10083 20067 53010
An error has occurred. This application may no longer respond until reloaded. Reload 🗙